Time;durP1;ratioP1;P1;durP2;ratioP2;P2;SDS_P1;SDS_P2;PMS_P1;PMS_P2;Temp;Humidity;BMP_temperature;BMP_pressure;BME280_temperature;BME280_humidity;BME280_pressure;Samples;Min_cycle;Max_cycle;Signal;HPM_P1;HPM_P2
2021/12/16 05:12:44;;;;;;;;;;;;;;;2.01;80.26;98501.53;4246820;27;10367;-68
2021/12/16 05:14:47;;;;;;;;;;;;;;;1.94;80.02;98495.88;4250544;27;5692;-69
2021/12/16 05:16:50;;;;;;;;;;;;;;;2.09;79.72;98503.66;4248342;27;5649;-68
2021/12/16 05:18:54;;;;;;;;;;;;;;;2.17;79.11;98507.44;4246998;27;5661;-68
2021/12/16 05:20:58;;;;;;;;;;;;;;;2.01;78.99;98509.34;4246577;27;5663;-69
2021/12/16 05:26:23;;;;;;;;;;;;;;;2.05;79.50;98508.25;4248715;27;5826;-69
2021/12/16 05:27:53;;;;;;;;;;;;;;;2.08;79.52;98513.25;4236803;27;5650;-69
2021/12/16 05:29:54;;;;;;;;;;;;;;;2.21;79.17;98519.34;4248234;27;5649;-69
2021/12/16 05:32:00;;;;;;;;;;;;;;;2.18;79.12;98516.13;4235307;27;5845;-68
2021/12/16 05:34:05;;;;;;;;;;;;;;;2.26;78.85;98522.50;4222919;28;5670;-68
2021/12/16 05:36:07;;;;;;;;;;;;;;;2.25;78.89;98526.03;4232982;28;5683;-69
2021/12/16 05:38:09;;;;;;;;;;;;;;;1.75;80.75;98516.22;4224306;28;5630;-70
2021/12/16 05:40:18;;;;;;;;;;;;;;;1.75;80.37;98526.66;4223802;28;5671;-69
2021/12/16 05:42:20;;;;;;;;;;;;;;;1.84;80.57;98520.03;4231780;28;5691;-69
2021/12/16 05:44:24;;;;;;;;;;;;;;;1.67;80.86;98519.28;4232243;28;5667;-69
2021/12/16 05:46:27;;;;;;;;;;;;;;;1.62;81.22;98523.97;4232806;28;5722;-69
2021/12/16 05:48:32;;;;;;;;;;;;;;;1.92;80.07;98517.75;4230044;28;5773;-68
2021/12/16 05:50:37;;;;;;;;;;;;;;;2.03;79.60;98520.53;4247713;27;5620;-69
2021/12/16 05:52:39;;;;;;;;;;;;;;;1.99;79.39;98525.09;4231329;28;5792;-68
2021/12/16 05:54:41;;;;;;;;;;;;;;;1.99;79.89;98516.44;4228768;28;5608;-68
2021/12/16 05:56:42;;;;;;;;;;;;;;;1.98;79.38;98523.44;4220161;28;5674;-68
2021/12/16 05:58:45;;;;;;;;;;;;;;;1.78;80.23;98525.63;4230732;28;5678;-68
2021/12/16 06:00:52;;;;;;;;;;;;;;;1.99;79.74;98524.28;4232518;28;5815;-68
2021/12/16 06:02:55;;;;;;;;;;;;;;;2.02;79.01;98524.91;4228894;28;5630;-67
2021/12/16 06:04:57;;;;;;;;;;;;;;;2.02;79.38;98522.28;4233218;27;5601;-68
2021/12/16 06:06:59;;;;;;;;;;;;;;;1.72;80.02;98524.25;4235764;27;5714;-68
2021/12/16 06:09:05;;;;;;;;;;;;;;;1.50;81.26;98523.91;4232644;28;6210;-68
2021/12/16 06:11:17;;;;;;;;;;;;;;;1.51;81.43;98528.19;4227671;28;5676;-68
2021/12/16 06:13:26;;;;;;;;;;;;;;;1.58;81.22;98535.50;4204663;28;5631;-68
2021/12/16 06:26:23;;;;;;;;;;;;;;;1.51;81.57;98531.63;4210464;28;5804;-68
2021/12/16 06:27:32;;;;;;;;;;;;;;;1.72;81.02;98535.50;4217053;28;5796;-68
2021/12/16 06:29:36;;;;;;;;;;;;;;;1.71;80.59;98541.66;4221707;28;5782;-68
2021/12/16 06:31:37;;;;;;;;;;;;;;;1.78;80.62;98541.25;4222314;28;5645;-68
2021/12/16 06:33:39;;;;;;;;;;;;;;;1.88;79.87;98539.75;4221450;28;5743;-67
2021/12/16 06:35:41;;;;;;;;;;;;;;;1.73;80.08;98545.00;4221093;28;5690;-68
2021/12/16 06:37:43;;;;;;;;;;;;;;;1.39;81.12;98550.63;4215626;28;5705;-68
2021/12/16 06:39:45;;;;;;;;;;;;;;;1.23;82.08;98544.63;4207994;28;5742;-68
2021/12/16 06:41:47;;;;;;;;;;;;;;;1.19;82.07;98550.97;4216378;28;5751;-68
2021/12/16 06:43:53;;;;;;;;;;;;;;;1.16;81.94;98555.44;4218869;28;5682;-68
2021/12/16 06:45:56;;;;;;;;;;;;;;;1.29;81.88;98545.13;4220980;28;5729;-68
2021/12/16 06:48:04;;;;;;;;;;;;;;;1.52;80.74;98556.75;4220136;28;5659;-68
2021/12/16 06:50:07;;;;;;;;;;;;;;;1.61;80.29;98550.97;4220662;28;5778;-68
2021/12/16 06:52:12;;;;;;;;;;;;;;;1.61;79.78;98545.75;4219805;28;5615;-68
2021/12/16 06:54:22;;;;;;;;;;;;;;;1.66;79.99;98548.06;4221051;28;5670;-68
2021/12/16 06:56:31;;;;;;;;;;;;;;;1.25;81.37;98548.00;4220802;28;5675;-68
2021/12/16 06:58:44;;;;;;;;;;;;;;;1.20;81.81;98548.28;4203655;28;5629;-68
2021/12/16 07:00:49;;;;;;;;;;;;;;;1.56;80.90;98536.53;4219776;28;5607;-68
2021/12/16 07:03:04;;;;;;;;;;;;;;;1.65;80.17;98546.41;4210715;28;5116;-68
2021/12/16 07:05:09;;;;;;;;;;;;;;;1.28;81.70;98553.03;4220532;28;7614;-66
2021/12/16 07:07:12;;;;;;;;;;;;;;;1.38;81.28;98555.00;4209539;28;5691;-66
2021/12/16 07:09:17;;;;;;;;;;;;;;;1.16;82.08;98550.22;4213020;28;5813;-66
2021/12/16 07:11:20;;;;;;;;;;;;;;;1.48;81.48;98547.44;4225273;28;5659;-66
2021/12/16 07:13:31;;;;;;;;;;;;;;;1.66;80.46;98546.31;4219509;28;5787;-65
2021/12/16 07:15:36;;;;;;;;;;;;;;;1.59;80.52;98558.06;4216877;28;5829;-66
2021/12/16 07:17:40;;;;;;;;;;;;;;;1.79;80.13;98562.03;4209340;28;5699;-66
2021/12/16 07:19:43;;;;;;;;;;;;;;;1.83;80.05;98552.25;4216225;28;5803;-66
2021/12/16 07:21:45;;;;;;;;;;;;;;;1.48;80.71;98551.84;4218857;28;5671;-66
2021/12/16 07:23:46;;;;;;;;;;;;;;;1.52;80.69;98550.69;4217998;28;5670;-66
2021/12/16 07:25:48;;;;;;;;;;;;;;;1.35;81.84;98560.38;4216596;28;5693;-66
2021/12/16 07:27:51;;;;;;;;;;;;;;;1.24;81.81;98560.16;4216610;28;5771;-66
2021/12/16 07:29:52;;;;;;;;;;;;;;;1.25;82.07;98556.66;4210719;28;5769;-66
2021/12/16 07:31:55;;;;;;;;;;;;;;;1.38;81.34;98565.41;4195362;28;5802;-66
2021/12/16 07:33:57;;;;;;;;;;;;;;;1.37;81.19;98568.13;4212360;28;5733;-66
2021/12/16 07:36:00;;;;;;;;;;;;;;;1.60;80.70;98561.50;4217440;28;5670;-67
2021/12/16 07:38:03;;;;;;;;;;;;;;;1.78;80.34;98567.34;4219862;28;5784;-66
2021/12/16 07:40:07;;;;;;;;;;;;;;;1.56;nan;98560.84;4247385;27;5604;-66
2021/12/16 07:42:14;;;;;;;;;;;;;;;1.72;79.83;98568.56;4202672;28;6265;-66
2021/12/16 07:44:17;;;;;;;;;;;;;;;1.71;79.83;98566.91;4220847;28;5615;-66
2021/12/16 07:46:18;;;;;;;;;;;;;;;1.71;79.88;98564.28;4216008;28;5627;-66
2021/12/16 07:48:22;;;;;;;;;;;;;;;1.77;79.66;98566.50;4217978;28;5612;-66
2021/12/16 07:50:24;;;;;;;;;;;;;;;1.83;79.49;98570.50;4218231;28;5670;-66
2021/12/16 07:52:25;;;;;;;;;;;;;;;1.89;79.44;98575.34;4212674;28;5688;-66
2021/12/16 07:54:27;;;;;;;;;;;;;;;1.97;78.72;98573.94;4205043;28;5697;-66
2021/12/16 07:56:29;;;;;;;;;;;;;;;1.83;78.76;98573.97;4202765;28;5692;-66
2021/12/16 07:58:32;;;;;;;;;;;;;;;1.49;80.12;98571.75;4202789;28;5692;-65
2021/12/16 08:00:35;;;;;;;;;;;;;;;1.68;79.49;98577.50;4201886;28;5696;-65
2021/12/16 08:02:38;;;;;;;;;;;;;;;1.57;80.08;98583.34;4216719;28;5675;-66
2021/12/16 08:04:43;;;;;;;;;;;;;;;1.44;80.02;98579.81;4217355;28;5623;-66
2021/12/16 08:06:47;;;;;;;;;;;;;;;1.66;79.74;98580.19;4202620;28;5796;-66
2021/12/16 08:08:57;;;;;;;;;;;;;;;1.75;79.30;98574.44;4235293;27;5648;-66
2021/12/16 08:11:00;;;;;;;;;;;;;;;1.81;79.40;98578.41;4233472;27;5735;-66
2021/12/16 08:13:03;;;;;;;;;;;;;;;1.86;78.82;98585.97;4206528;28;5661;-66
2021/12/16 08:15:06;;;;;;;;;;;;;;;1.85;78.97;98574.69;4201235;28;5634;-66
2021/12/16 08:17:09;;;;;;;;;;;;;;;1.37;80.32;98576.78;4207578;28;5868;-66
2021/12/16 08:19:10;;;;;;;;;;;;;;;1.45;80.47;98577.13;4202453;28;5703;-66
2021/12/16 08:21:12;;;;;;;;;;;;;;;1.72;79.45;98582.44;4201242;28;5700;-66
2021/12/16 08:23:14;;;;;;;;;;;;;;;1.74;79.29;98577.13;4201913;28;5696;-66
2021/12/16 08:25:19;;;;;;;;;;;;;;;1.81;78.91;98578.41;4204833;28;5643;-66
2021/12/16 08:27:20;;;;;;;;;;;;;;;1.88;78.98;98584.09;4218038;28;5954;-66
2021/12/16 08:29:24;;;;;;;;;;;;;;;1.88;78.35;98579.72;4217867;28;6853;-66
2021/12/16 08:31:26;;;;;;;;;;;;;;;1.90;78.59;98577.84;4214027;28;5604;-66
2021/12/16 08:33:28;;;;;;;;;;;;;;;1.52;79.81;98593.25;4219264;28;5745;-66
2021/12/16 08:35:30;;;;;;;;;;;;;;;1.61;80.07;98597.06;4216495;28;5767;-66
2021/12/16 08:37:32;;;;;;;;;;;;;;;1.74;79.34;98591.00;4214983;28;6291;-66
2021/12/16 08:39:34;;;;;;;;;;;;;;;1.79;79.47;98597.69;4219084;28;5682;-66
2021/12/16 08:41:46;;;;;;;;;;;;;;;1.88;78.93;98597.97;4209752;28;5853;-66
2021/12/16 08:43:48;;;;;;;;;;;;;;;1.96;78.14;98598.34;4219203;28;5670;-66
2021/12/16 08:45:50;;;;;;;;;;;;;;;1.93;78.07;98601.16;4215822;28;5832;-66
2021/12/16 08:47:54;;;;;;;;;;;;;;;2.01;78.45;98603.25;4218554;28;5801;-66
2021/12/16 08:49:58;;;;;;;;;;;;;;;1.83;78.71;98596.59;4217165;28;5805;-66
2021/12/16 08:52:04;;;;;;;;;;;;;;;1.84;79.09;98601.72;4217316;28;5690;-66
2021/12/16 08:54:07;;;;;;;;;;;;;;;2.08;78.49;98606.34;4216631;28;5736;-66
2021/12/16 08:56:12;;;;;;;;;;;;;;;2.18;77.86;98603.06;4205118;28;5697;-66
2021/12/16 08:58:14;;;;;;;;;;;;;;;2.11;77.71;98603.53;4202045;28;6210;-66
2021/12/16 09:00:22;;;;;;;;;;;;;;;1.91;78.25;98599.53;4210702;28;5772;-67
2021/12/16 09:02:24;;;;;;;;;;;;;;;1.72;79.24;98605.91;4233767;27;5629;-66
2021/12/16 09:04:27;;;;;;;;;;;;;;;2.06;78.76;98606.44;4217418;28;5667;-66
2021/12/16 09:06:29;;;;;;;;;;;;;;;2.31;77.72;98601.34;4211808;28;5247;-66
2021/12/16 09:08:31;;;;;;;;;;;;;;;2.47;77.55;98597.75;4214515;28;7791;-66
2021/12/16 09:10:36;;;;;;;;;;;;;;;2.55;77.35;98614.59;4215999;28;5615;-66
2021/12/16 09:12:51;;;;;;;;;;;;;;;2.60;76.89;98616.91;4217816;28;5762;-66
2021/12/16 09:14:52;;;;;;;;;;;;;;;2.64;76.48;98613.19;4217733;28;5778;-66
2021/12/16 09:16:54;;;;;;;;;;;;;;;2.51;76.04;98614.91;4218970;28;5667;-66
2021/12/16 09:18:56;;;;;;;;;;;;;;;2.51;76.35;98614.91;4217659;28;5691;-66
2021/12/16 09:21:01;;;;;;;;;;;;;;;2.49;76.29;98617.63;4216388;28;5639;-66
2021/12/16 09:23:13;;;;;;;;;;;;;;;2.57;76.17;98617.09;4217399;28;5629;-66
2021/12/16 09:25:15;;;;;;;;;;;;;;;2.38;77.21;98620.06;4213737;28;5796;-66
2021/12/16 09:27:18;;;;;;;;;;;;;;;2.57;76.41;98614.50;4201672;28;5800;-67
2021/12/16 09:29:19;;;;;;;;;;;;;;;2.56;76.92;98615.44;4206830;28;5758;-67
2021/12/16 09:31:28;;;;;;;;;;;;;;;2.76;76.25;98620.22;4216741;28;6184;-66
2021/12/16 09:33:31;;;;;;;;;;;;;;;2.41;76.27;98619.03;4217680;28;5811;-66
2021/12/16 09:35:36;;;;;;;;;;;;;;;2.62;76.87;98628.94;4217222;28;5649;-66
2021/12/16 09:37:37;;;;;;;;;;;;;;;2.77;76.10;98627.09;4204746;28;5746;-66
2021/12/16 09:39:40;;;;;;;;;;;;;;;2.88;75.68;98619.41;4200225;28;5682;-67
2021/12/16 09:41:45;;;;;;;;;;;;;;;2.73;76.13;98625.66;4201182;28;6353;-66
2021/12/16 09:43:50;;;;;;;;;;;;;;;2.81;75.38;98623.34;4201758;28;5688;-66
2021/12/16 09:45:55;;;;;;;;;;;;;;;2.68;75.47;98640.75;4217845;28;5675;-66
2021/12/16 09:47:57;;;;;;;;;;;;;;;2.54;76.55;98627.75;4217443;28;5627;-66
2021/12/16 09:49:59;;;;;;;;;;;;;;;2.62;76.28;98630.72;4218934;28;5822;-66
2021/12/16 09:52:04;;;;;;;;;;;;;;;2.83;76.25;98629.34;4239354;27;5660;-66
2021/12/16 09:54:09;;;;;;;;;;;;;;;2.94;75.95;98633.81;4203052;28;5630;-66
2021/12/16 09:56:11;;;;;;;;;;;;;;;3.00;75.05;98625.59;4213480;28;5667;-66
2021/12/16 09:58:12;;;;;;;;;;;;;;;2.90;75.22;98637.59;4220335;28;5781;-66
2021/12/16 10:00:22;;;;;;;;;;;;;;;2.92;76.15;98635.72;4219938;28;5702;-67
2021/12/16 10:02:24;;;;;;;;;;;;;;;3.01;75.79;98632.50;4220776;28;5659;-66
2021/12/16 10:04:31;;;;;;;;;;;;;;;3.01;75.63;98626.44;4209176;28;5720;-66
2021/12/16 10:06:37;;;;;;;;;;;;;;;2.97;75.04;98627.59;4204028;28;6368;-67
2021/12/16 10:08:40;;;;;;;;;;;;;;;2.96;75.84;98620.69;4204284;28;5687;-66
2021/12/16 10:10:42;;;;;;;;;;;;;;;3.10;75.59;98624.06;4213108;28;5797;-67
2021/12/16 10:12:49;;;;;;;;;;;;;;;2.98;75.27;98626.66;4218386;28;5790;-66
2021/12/16 10:19:21;;;;;;;;;;;;;;;3.29;75.14;98604.53;4219283;28;5738;-66
2021/12/16 10:21:24;;;;;;;;;;;;;;;3.37;75.65;98612.69;4220444;28;5781;-66
2021/12/16 10:23:32;;;;;;;;;;;;;;;3.49;75.07;98599.63;4219235;28;5636;-66
2021/12/16 10:25:40;;;;;;;;;;;;;;;3.50;74.80;98598.66;4220937;28;5663;-66
2021/12/16 10:28:23;;;;;;;;;;;;;;;3.41;74.28;98591.47;4221005;28;6241;-66
2021/12/16 10:30:34;;;;;;;;;;;;;;;3.60;74.48;98591.03;4203774;28;5695;-66
2021/12/16 10:32:42;;;;;;;;;;;;;;;3.45;73.40;98586.88;4217412;28;5627;-66
2021/12/16 10:34:58;;;;;;;;;;;;;;;3.40;74.57;98578.50;4213990;28;5633;-66
2021/12/16 10:37:00;;;;;;;;;;;;;;;3.42;74.43;98576.63;4213919;28;5788;-66
2021/12/16 10:39:10;;;;;;;;;;;;;;;3.51;74.91;98581.19;4250494;27;5851;-66
2021/12/16 10:41:26;;;;;;;;;;;;;;;3.61;74.09;98584.03;4210032;28;5671;-66
2021/12/16 10:43:33;;;;;;;;;;;;;;;3.46;74.15;98578.91;4219264;28;5691;-67
2021/12/16 10:45:40;;;;;;;;;;;;;;;3.34;74.90;98592.81;4202340;28;5630;-66
2021/12/16 10:47:41;;;;;;;;;;;;;;;3.34;75.25;98589.38;4203746;28;5996;-65
2021/12/16 10:49:49;;;;;;;;;;;;;;;3.36;74.44;98590.09;4208467;28;6940;-66
2021/12/16 10:51:58;;;;;;;;;;;;;;;3.27;75.12;98588.09;4219677;28;6411;-66
2021/12/16 10:54:14;;;;;;;;;;;;;;;3.15;75.66;98588.00;4214473;28;5808;-66
2021/12/16 10:56:18;;;;;;;;;;;;;;;3.02;76.51;98583.69;4204042;28;5818;-66
2021/12/16 10:58:20;;;;;;;;;;;;;;;3.24;74.75;98583.94;4203878;28;5736;-66
2021/12/16 11:00:23;;;;;;;;;;;;;;;3.22;74.66;98581.41;4204013;28;5696;-66
2021/12/16 11:02:29;;;;;;;;;;;;;;;3.25;74.37;98579.53;4203563;28;5685;-66
2021/12/16 11:04:44;;;;;;;;;;;;;;;3.28;74.60;98584.53;4203665;28;5747;-67
2021/12/16 11:07:02;;;;;;;;;;;;;;;3.34;74.34;98584.97;4203494;28;5699;-66
2021/12/16 11:09:41;;;;;;;;;;;;;;;3.26;73.92;98582.03;4220408;28;5670;-66
2021/12/16 11:11:43;;;;;;;;;;;;;;;3.23;73.66;98587.47;4184176;28;5806;-66
2021/12/16 11:13:44;;;;;;;;;;;;;;;3.02;74.07;98573.25;4190101;28;5878;-66
2021/12/16 11:15:49;;;;;;;;;;;;;;;3.12;74.55;98585.59;4217201;28;5679;-66
2021/12/16 11:17:51;;;;;;;;;;;;;;;2.85;74.40;98598.72;4220013;28;5711;-66
2021/12/16 11:20:16;;;;;;;;;;;;;;;2.95;75.08;98593.72;4217188;28;5686;-66
2021/12/16 11:22:23;;;;;;;;;;;;;;;3.17;74.70;98595.72;4235483;28;5628;-67
2021/12/16 11:24:25;;;;;;;;;;;;;;;3.24;73.91;98596.16;4207936;28;5662;-66
2021/12/16 11:26:31;;;;;;;;;;;;;;;2.55;76.16;98600.72;4219012;28;6461;-66
2021/12/16 11:29:01;;;;;;;;;;;;;;;2.40;77.07;98596.47;4219063;28;5663;-66
2021/12/16 11:31:03;;;;;;;;;;;;;;;2.19;78.64;98603.91;4214776;28;5724;-66
2021/12/16 11:33:09;;;;;;;;;;;;;;;2.58;77.67;98605.72;4218962;28;5666;-66
2021/12/16 11:35:23;;;;;;;;;;;;;;;2.56;77.89;98613.66;4219340;28;5674;-66
2021/12/16 11:37:25;;;;;;;;;;;;;;;2.46;78.32;98606.50;4218145;28;6354;-66
2021/12/16 11:39:29;;;;;;;;;;;;;;;2.59;77.95;98610.00;4216376;28;5823;-67
2021/12/16 11:41:35;;;;;;;;;;;;;;;2.63;78.08;98608.88;4251919;27;5657;-66
2021/12/16 11:43:48;;;;;;;;;;;;;;;2.70;77.73;98607.53;4207609;28;5808;-64
2021/12/16 11:45:50;;;;;;;;;;;;;;;2.86;77.32;98600.38;4202363;28;5747;-65
2021/12/16 11:47:55;;;;;;;;;;;;;;;2.99;76.74;98604.81;4235646;27;5608;-65
2021/12/16 11:50:02;;;;;;;;;;;;;;;3.01;76.73;98614.22;4202594;28;5776;-65
2021/12/16 11:52:26;;;;;;;;;;;;;;;3.00;76.87;98603.88;4203227;28;5704;-66
2021/12/16 11:54:27;;;;;;;;;;;;;;;2.71;77.77;98605.75;4211033;28;6328;-66
2021/12/16 11:56:48;;;;;;;;;;;;;;;2.83;77.64;98595.38;4219482;28;5672;-65
2021/12/16 11:58:50;;;;;;;;;;;;;;;3.06;77.08;98595.59;4219534;28;6250;-66
2021/12/16 12:00:52;;;;;;;;;;;;;;;2.88;77.15;98597.69;4218614;28;5667;-66
2021/12/16 12:02:57;;;;;;;;;;;;;;;2.33;79.01;98598.63;4219673;28;5671;-66
2021/12/16 12:05:31;;;;;;;;;;;;;;;2.58;78.67;98595.28;4219346;28;5667;-65
2021/12/16 12:07:40;;;;;;;;;;;;;;;2.74;78.31;98590.75;4205104;28;5653;-66
2021/12/16 12:09:46;;;;;;;;;;;;;;;2.89;77.98;98583.66;4218802;28;5670;-66
2021/12/16 12:11:48;;;;;;;;;;;;;;;2.92;77.70;98583.47;4228895;28;5725;-66
2021/12/16 12:13:56;;;;;;;;;;;;;;;2.60;78.59;98570.75;4217019;28;5670;-66
2021/12/16 12:16:17;;;;;;;;;;;;;;;2.46;79.38;98578.63;4218397;28;5675;-66
2021/12/16 12:18:42;;;;;;;;;;;;;;;2.73;78.40;98576.03;4219026;28;5674;-66
2021/12/16 12:20:44;;;;;;;;;;;;;;;2.91;77.87;98581.78;4213937;28;5841;-66
2021/12/16 12:22:50;;;;;;;;;;;;;;;2.93;77.70;98591.19;4204420;28;5955;-66
2021/12/16 12:24:52;;;;;;;;;;;;;;;3.00;77.37;98582.97;4217105;28;5657;-66
2021/12/16 12:26:57;;;;;;;;;;;;;;;3.05;77.22;98575.63;4218008;28;5667;-66
2021/12/16 12:29:05;;;;;;;;;;;;;;;3.02;76.77;98583.69;4219212;28;5667;-66
2021/12/16 12:31:07;;;;;;;;;;;;;;;2.64;78.42;98579.22;4211585;28;5642;-66
2021/12/16 12:33:09;;;;;;;;;;;;;;;2.45;79.08;98581.34;4202301;28;5699;-66
2021/12/16 12:35:25;;;;;;;;;;;;;;;2.64;78.82;98589.66;4200560;28;5689;-66
2021/12/16 12:37:31;;;;;;;;;;;;;;;2.91;77.90;98589.63;4212309;28;5694;-66
2021/12/16 12:39:39;;;;;;;;;;;;;;;3.09;77.48;98579.75;4218737;28;5710;-66
2021/12/16 12:41:42;;;;;;;;;;;;;;;3.07;77.02;98582.47;4214897;28;5801;-66
2021/12/16 12:43:44;;;;;;;;;;;;;;;3.05;76.85;98583.47;4216217;28;6327;-66
2021/12/16 12:45:49;;;;;;;;;;;;;;;2.95;77.23;98583.28;4200829;28;5665;-66
2021/12/16 12:47:53;;;;;;;;;;;;;;;3.06;77.26;98585.16;4200647;28;5730;-66
2021/12/16 12:50:17;;;;;;;;;;;;;;;3.11;77.11;98583.09;4208722;28;5711;-66
2021/12/16 12:52:22;;;;;;;;;;;;;;;2.42;79.22;98586.78;4221501;28;5639;-66
2021/12/16 12:54:27;;;;;;;;;;;;;;;2.38;79.99;98580.06;4207127;28;5881;-66
2021/12/16 12:56:34;;;;;;;;;;;;;;;2.46;79.67;98590.84;4205487;28;5762;-66
2021/12/16 12:58:53;;;;;;;;;;;;;;;2.67;79.24;98579.03;4209775;28;6547;-66
2021/12/16 13:00:59;;;;;;;;;;;;;;;2.88;78.31;98577.59;4212371;28;5617;-66
2021/12/16 13:03:10;;;;;;;;;;;;;;;2.95;78.29;98579.84;4206354;28;5599;-66
2021/12/16 13:05:20;;;;;;;;;;;;;;;3.05;77.44;98573.88;4235895;27;5766;-66
2021/12/16 13:08:00;;;;;;;;;;;;;;;2.90;78.04;98580.13;4223285;27;5787;-66
2021/12/16 13:10:16;;;;;;;;;;;;;;;2.68;77.92;98578.06;4157959;28;5808;-66
2021/12/16 13:12:21;;;;;;;;;;;;;;;2.95;77.81;98572.00;4209910;28;5851;-66
2021/12/16 13:14:41;;;;;;;;;;;;;;;2.83;77.74;98579.69;4210951;28;5684;-66
2021/12/16 13:26:31;;;;;;;;;;;;;;;2.75;78.38;98571.53;4204295;28;5828;-66
2021/12/16 13:28:54;;;;;;;;;;;;;;;2.70;78.90;98568.38;4204957;28;5707;-66
2021/12/16 13:31:02;;;;;;;;;;;;;;;2.76;78.19;98565.38;4204655;28;5803;-66
2021/12/16 13:33:20;;;;;;;;;;;;;;;2.27;80.16;98570.34;4204905;28;5774;-66
2021/12/16 13:35:34;;;;;;;;;;;;;;;2.49;79.90;98564.53;4203543;28;5673;-66
2021/12/16 13:37:44;;;;;;;;;;;;;;;2.75;78.78;98566.31;4204374;28;5700;-66
2021/12/16 13:39:47;;;;;;;;;;;;;;;2.86;78.72;98574.28;4239205;27;5609;-66
2021/12/16 13:42:00;;;;;;;;;;;;;;;2.84;78.60;98575.31;4214874;28;6480;-66
2021/12/16 13:44:12;;;;;;;;;;;;;;;2.74;78.91;98569.03;4206301;28;5742;-66
2021/12/16 14:05:21;;;;;;;;;;;;;;;2.79;79.24;98578.22;4213797;28;5684;-66
2021/12/16 14:07:56;;;;;;;;;;;;;;;2.91;78.74;98585.25;4210196;28;5663;-67
2021/12/16 14:10:20;;;;;;;;;;;;;;;2.99;78.46;98582.13;4220085;28;5850;-66
2021/12/16 14:24:43;;;;;;;;;;;;;;;2.84;78.69;98586.59;4205624;28;5909;-66
2021/12/16 14:27:07;;;;;;;;;;;;;;;2.55;79.82;98590.25;4202014;28;5646;-65
2021/12/16 14:43:16;;;;;;;;;;;;;;;2.72;79.93;98592.63;4198874;28;5638;-66
2021/12/16 14:49:49;;;;;;;;;;;;;;;2.50;80.54;98597.56;4219120;28;5775;-66
2021/12/16 14:51:55;;;;;;;;;;;;;;;2.51;80.56;98588.81;4217754;28;5975;-66
2021/12/16 14:53:56;;;;;;;;;;;;;;;2.39;81.25;98600.03;4212106;28;5619;-65
2021/12/16 14:56:04;;;;;;;;;;;;;;;2.64;80.62;98600.13;4219793;28;5292;-65
2021/12/16 14:58:07;;;;;;;;;;;;;;;2.66;80.11;98607.84;4185210;28;7289;-66
2021/12/16 15:00:12;;;;;;;;;;;;;;;2.65;80.21;98604.41;4245955;27;5585;-66
2021/12/16 15:02:16;;;;;;;;;;;;;;;2.66;80.10;98606.06;4217894;28;5769;-66
2021/12/16 15:04:24;;;;;;;;;;;;;;;2.70;79.94;98606.69;4210196;28;5786;-66
2021/12/16 15:06:39;;;;;;;;;;;;;;;2.67;80.07;98605.13;4210426;28;5805;-65
2021/12/16 15:10:52;;;;;;;;;;;;;;;2.79;79.76;98609.56;4211423;28;5699;-65
2021/12/16 15:13:02;;;;;;;;;;;;;;;2.79;79.88;98601.72;4218568;28;5616;-65
2021/12/16 15:15:30;;;;;;;;;;;;;;;2.67;79.87;98610.34;4211144;28;6283;-65
2021/12/16 15:34:20;;;;;;;;;;;;;;;2.41;81.20;98608.59;4209452;28;5683;-65
2021/12/16 15:37:53;;;;;;;;;;;;;;;2.47;81.23;98602.97;4235970;27;5752;-66
2021/12/16 15:44:29;;;;;;;;;;;;;;;2.54;81.03;98609.47;4216846;28;5642;-66
2021/12/16 15:46:31;;;;;;;;;;;;;;;2.62;80.64;98613.28;4215118;28;5734;-65
2021/12/16 15:48:33;;;;;;;;;;;;;;;2.68;80.52;98608.59;4216024;28;5780;-66
2021/12/16 15:50:47;;;;;;;;;;;;;;;2.73;80.31;98615.19;4213640;28;5845;-66
2021/12/16 15:52:57;;;;;;;;;;;;;;;2.69;80.60;98610.25;4204824;28;5848;-66
2021/12/16 15:54:59;;;;;;;;;;;;;;;2.72;80.49;98618.75;4207711;28;5819;-66
2021/12/16 15:57:18;;;;;;;;;;;;;;;2.87;79.90;98611.69;4215302;28;5817;-66
2021/12/16 15:59:21;;;;;;;;;;;;;;;2.81;80.35;98623.34;4206168;28;5627;-66
2021/12/16 16:01:25;;;;;;;;;;;;;;;2.85;79.64;98609.16;4188394;28;5817;-66
2021/12/16 16:03:28;;;;;;;;;;;;;;;2.57;80.57;98614.50;4216331;28;5786;-66
2021/12/16 16:05:36;;;;;;;;;;;;;;;2.57;80.79;98620.56;4214928;28;5714;-66
2021/12/16 16:07:40;;;;;;;;;;;;;;;2.55;80.80;98614.59;4216197;28;5794;-65
2021/12/16 16:09:50;;;;;;;;;;;;;;;2.80;79.92;98621.69;4211386;28;5769;-66
2021/12/16 16:11:53;;;;;;;;;;;;;;;2.92;79.58;98620.88;4207794;28;5865;-66
2021/12/16 16:14:00;;;;;;;;;;;;;;;2.90;79.70;98617.53;4190687;28;5884;-65
2021/12/16 16:16:06;;;;;;;;;;;;;;;2.89;79.55;98618.47;4212048;28;5776;-66
2021/12/16 16:18:32;;;;;;;;;;;;;;;2.82;80.15;98622.41;4213163;28;5718;-66
2021/12/16 16:20:33;;;;;;;;;;;;;;;2.95;79.58;98621.63;4213060;28;5841;-68
2021/12/16 16:22:35;;;;;;;;;;;;;;;3.05;79.42;98620.91;4202757;28;5736;-68
2021/12/16 16:24:41;;;;;;;;;;;;;;;3.13;78.98;98621.22;4212253;28;5908;-68
2021/12/16 16:26:43;;;;;;;;;;;;;;;2.84;79.93;98614.50;4217389;28;5869;-68
2021/12/16 16:28:49;;;;;;;;;;;;;;;2.96;79.64;98618.09;4214528;28;5753;-68
2021/12/16 16:30:53;;;;;;;;;;;;;;;2.89;79.40;98615.84;4217332;28;5825;-68
2021/12/16 16:33:07;;;;;;;;;;;;;;;2.53;80.85;98624.31;4217126;28;5910;-68
2021/12/16 16:35:15;;;;;;;;;;;;;;;2.72;80.22;98618.75;4207794;28;6488;-68
2021/12/16 16:37:42;;;;;;;;;;;;;;;2.61;80.96;98623.81;4231443;27;5726;-68
2021/12/16 16:39:52;;;;;;;;;;;;;;;2.84;80.31;98622.34;4196766;28;5864;-68
2021/12/16 16:41:57;;;;;;;;;;;;;;;3.00;79.68;98619.53;4205848;28;5823;-68
2021/12/16 16:44:02;;;;;;;;;;;;;;;3.10;79.08;98618.00;4213767;28;5238;-68
2021/12/16 16:46:15;;;;;;;;;;;;;;;3.00;79.29;98624.75;4214573;28;7705;-68
2021/12/16 16:49:25;;;;;;;;;;;;;;;2.88;79.58;98621.19;4212468;28;5738;-68
2021/12/16 16:51:06;;;;;;;;;;;;;;;2.89;79.77;98613.25;4194420;28;5719;-68
2021/12/16 16:53:09;;;;;;;;;;;;;;;2.74;79.65;98621.25;4206194;28;5770;-71
2021/12/16 16:55:24;;;;;;;;;;;;;;;2.56;80.51;98618.88;4207932;28;6511;-70
2021/12/16 16:57:31;;;;;;;;;;;;;;;2.54;81.17;98617.31;4206779;28;5804;-69
2021/12/16 16:59:54;;;;;;;;;;;;;;;2.67;80.63;98617.34;4207150;28;5833;-70
2021/12/16 17:01:58;;;;;;;;;;;;;;;2.55;81.22;98616.38;4210824;28;5855;-70
2021/12/16 17:04:03;;;;;;;;;;;;;;;2.85;80.16;98614.41;4215636;28;5752;-69
2021/12/16 17:06:05;;;;;;;;;;;;;;;2.92;79.93;98620.88;4223858;28;5722;-70
2021/12/16 17:08:15;;;;;;;;;;;;;;;3.03;79.53;98616.72;4210749;28;5786;-71
2021/12/16 17:10:38;;;;;;;;;;;;;;;3.09;79.25;98621.56;4210257;28;5846;-70
2021/12/16 17:12:40;;;;;;;;;;;;;;;2.94;79.54;98620.75;4208874;28;5699;-68
2021/12/16 17:14:54;;;;;;;;;;;;;;;3.03;79.44;98616.72;4207902;28;5682;-68
2021/12/16 17:19:16;;;;;;;;;;;;;;;2.76;80.09;98622.00;4209203;28;5745;-67
2021/12/16 17:21:18;;;;;;;;;;;;;;;2.22;81.33;98617.56;4210757;28;5921;-69
2021/12/16 17:23:25;;;;;;;;;;;;;;;2.22;81.75;98609.75;4207532;28;5682;-67
2021/12/16 17:25:29;;;;;;;;;;;;;;;2.14;82.21;98608.53;4204093;28;5838;-67
2021/12/16 17:27:44;;;;;;;;;;;;;;;2.36;81.50;98615.88;4208794;28;5898;-67
2021/12/16 17:29:59;;;;;;;;;;;;;;;2.09;82.43;98611.47;4209889;28;5897;-67
2021/12/16 17:32:08;;;;;;;;;;;;;;;1.95;82.99;98609.72;4210592;28;6489;-67
2021/12/16 17:34:26;;;;;;;;;;;;;;;2.08;82.68;98611.56;4215456;28;5761;-66
2021/12/16 17:36:31;;;;;;;;;;;;;;;2.28;82.33;98618.97;4214326;28;5785;-66
2021/12/16 17:38:33;;;;;;;;;;;;;;;2.44;81.33;98619.66;4197169;28;5817;-66
2021/12/16 17:40:40;;;;;;;;;;;;;;;2.52;80.94;98609.59;4199483;28;6050;-67
2021/12/16 17:42:46;;;;;;;;;;;;;;;2.43;80.99;98617.16;4196902;28;5749;-66
2021/12/16 17:44:51;;;;;;;;;;;;;;;2.45;81.00;98623.13;4198651;28;5959;-66
2021/12/16 17:47:00;;;;;;;;;;;;;;;2.60;80.58;98603.84;4198282;28;5927;-67
2021/12/16 17:49:06;;;;;;;;;;;;;;;2.32;80.84;98616.06;4207189;28;5795;-66
2021/12/16 17:51:12;;;;;;;;;;;;;;;2.11;81.52;98609.59;4208496;28;6488;-67
2021/12/16 17:53:15;;;;;;;;;;;;;;;1.92;82.28;98614.25;4208624;28;5744;-67
2021/12/16 17:55:22;;;;;;;;;;;;;;;2.08;81.88;98601.97;4211770;28;5765;-66
2021/12/16 17:57:32;;;;;;;;;;;;;;;2.31;81.16;98613.56;4208958;28;6503;-67
2021/12/16 17:59:38;;;;;;;;;;;;;;;2.21;81.02;98613.28;4211413;28;5866;-67
2021/12/16 18:01:43;;;;;;;;;;;;;;;2.33;80.75;98607.28;4213716;28;5901;-67
2021/12/16 18:03:49;;;;;;;;;;;;;;;2.41;80.37;98605.97;4215007;28;5795;-67
2021/12/16 18:05:56;;;;;;;;;;;;;;;2.13;81.37;98610.31;4213763;28;5639;-66
2021/12/16 18:07:58;;;;;;;;;;;;;;;2.34;80.87;98622.03;4213785;28;5595;-67
2021/12/16 18:09:59;;;;;;;;;;;;;;;2.29;80.60;98610.22;4217879;28;5868;-66
2021/12/16 18:12:09;;;;;;;;;;;;;;;2.39;80.76;98606.09;4217834;28;5872;-67
2021/12/16 18:14:16;;;;;;;;;;;;;;;2.26;80.70;98610.38;4218134;28;5744;-66